createdAt,value
2022-08-10T00:00:34.551Z,17.37
2022-08-10T00:03:01.599Z,17.32
2022-08-10T00:05:26.829Z,17.28
2022-08-10T00:08:08.476Z,17.22
2022-08-10T00:10:32.461Z,17.23
2022-08-10T00:12:56.422Z,17.10
2022-08-10T00:15:52.057Z,16.98
2022-08-10T00:18:07.044Z,16.98
2022-08-10T00:20:30.933Z,16.94
2022-08-10T00:22:57.802Z,16.93
2022-08-10T00:25:23.095Z,16.86
2022-08-10T00:28:01.872Z,16.82
2022-08-10T00:30:27.152Z,16.76
2022-08-10T00:32:50.905Z,16.71
2022-08-10T00:35:14.731Z,16.68
2022-08-10T00:37:38.526Z,16.64
2022-08-10T00:40:02.376Z,16.60
2022-08-10T00:42:27.613Z,16.59
2022-08-10T00:44:53.563Z,16.54
2022-08-10T00:47:36.996Z,16.53
2022-08-10T00:50:01.485Z,16.46
2022-08-10T00:52:25.852Z,16.38
2022-08-10T00:54:50.048Z,16.31
2022-08-10T00:57:18.614Z,16.28
2022-08-10T00:59:58.023Z,16.26
2022-08-10T01:02:24.023Z,16.26
2022-08-10T01:04:59.518Z,16.24
2022-08-10T01:07:58.325Z,16.13
2022-08-10T01:10:36.693Z,16.10
2022-08-10T01:13:08.728Z,16.03
2022-08-10T01:15:41.590Z,15.99
2022-08-10T01:18:13.455Z,16.00
2022-08-10T01:20:43.669Z,15.91
2022-08-10T01:23:45.560Z,15.92
2022-08-10T01:26:51.212Z,15.87
2022-08-10T01:30:01.339Z,15.78
2022-08-10T01:32:34.530Z,15.75
2022-08-10T01:35:10.824Z,15.74
2022-08-10T01:37:40.205Z,15.73
2022-08-10T01:40:13.551Z,15.71
2022-08-10T01:42:42.104Z,15.68
2022-08-10T01:45:11.108Z,15.66
2022-08-10T01:47:59.483Z,15.67
2022-08-10T01:50:30.071Z,15.66
2022-08-10T01:53:05.372Z,15.61
2022-08-10T01:55:30.495Z,15.55
2022-08-10T01:57:56.745Z,15.56
2022-08-10T02:00:22.132Z,15.55
2022-08-10T02:02:48.499Z,15.54
2022-08-10T02:05:13.348Z,15.44
2022-08-10T02:07:42.052Z,15.47
2022-08-10T02:10:10.984Z,15.41
2022-08-10T02:12:37.290Z,15.42
2022-08-10T02:15:04.722Z,15.40
2022-08-10T02:17:57.919Z,15.35
2022-08-10T02:20:24.741Z,15.33
2022-08-10T02:22:53.359Z,15.27
2022-08-10T02:25:42.000Z,15.27
2022-08-10T02:28:05.646Z,15.22
2022-08-10T02:30:30.545Z,15.21
2022-08-10T02:32:58.139Z,15.24
2022-08-10T02:35:24.544Z,15.25
2022-08-10T02:37:56.124Z,15.22
2022-08-10T02:42:18.794Z,15.17
2022-08-10T02:45:17.697Z,15.15
2022-08-10T02:46:11.196Z,15.19
2022-08-10T02:48:43.402Z,15.05
2022-08-10T02:51:17.151Z,15.04
2022-08-10T02:53:55.268Z,14.90
2022-08-10T02:56:25.890Z,15.04
2022-08-10T02:58:59.924Z,15.02
2022-08-10T03:01:31.051Z,15.01
2022-08-10T03:04:02.213Z,14.99
2022-08-10T03:06:34.399Z,14.96
2022-08-10T03:09:00.578Z,14.93
2022-08-10T03:12:35.897Z,14.93
2022-08-10T03:14:15.159Z,14.87
2022-08-10T03:16:39.759Z,14.86
2022-08-10T03:19:07.459Z,14.89
2022-08-10T03:21:53.315Z,14.81
2022-08-10T03:24:33.312Z,14.86
2022-08-10T03:26:58.207Z,14.82
2022-08-10T03:29:24.220Z,14.79
2022-08-10T03:31:48.761Z,14.79
2022-08-10T03:34:22.243Z,14.81
2022-08-10T03:36:56.961Z,14.80
2022-08-10T03:39:20.778Z,14.79
2022-08-10T03:41:53.547Z,14.78
2022-08-10T03:44:34.452Z,14.77
2022-08-10T03:47:02.113Z,14.79
2022-08-10T03:49:29.438Z,14.74
2022-08-10T03:51:53.414Z,14.75
2022-08-10T03:54:17.836Z,14.80
2022-08-10T03:56:42.756Z,14.78
2022-08-10T03:59:08.953Z,14.77
2022-08-10T04:02:45.981Z,14.70
2022-08-10T04:04:22.835Z,14.68
2022-08-10T04:06:51.511Z,14.55
2022-08-10T04:09:18.863Z,14.55
2022-08-10T04:11:43.209Z,14.56
2022-08-10T04:14:07.003Z,14.60
2022-08-10T04:16:32.932Z,14.77
2022-08-10T04:18:56.777Z,14.75
2022-08-10T04:21:27.909Z,14.73
2022-08-10T04:23:53.825Z,14.74
2022-08-10T04:26:18.122Z,14.74
2022-08-10T04:28:42.739Z,14.71
2022-08-10T04:31:08.011Z,14.73
2022-08-10T04:33:33.511Z,14.80
2022-08-10T04:35:58.416Z,14.78
2022-08-10T04:38:23.708Z,14.82
2022-08-10T04:40:49.204Z,14.77
2022-08-10T04:43:13.664Z,14.88
2022-08-10T04:45:49.927Z,14.98
2022-08-10T04:48:42.743Z,15.06
2022-08-10T04:50:59.702Z,15.00
2022-08-10T04:53:24.029Z,15.15
2022-08-10T04:55:49.161Z,15.20
2022-08-10T04:58:13.203Z,15.24
2022-08-10T05:00:37.145Z,15.29
2022-08-10T05:03:00.863Z,15.30
2022-08-10T05:05:24.688Z,15.43
2022-08-10T05:07:53.873Z,15.45
2022-08-10T05:10:20.931Z,15.56
2022-08-10T05:12:47.108Z,15.52
2022-08-10T05:15:13.543Z,15.56
2022-08-10T05:17:38.546Z,15.69
2022-08-10T05:20:06.524Z,15.85
2022-08-10T05:22:31.085Z,15.96
2022-08-10T05:24:54.843Z,16.09
2022-08-10T05:27:18.556Z,16.15
2022-08-10T05:29:43.768Z,16.16
2022-08-10T05:32:24.957Z,16.24
2022-08-10T05:34:48.632Z,16.39
2022-08-10T05:38:10.693Z,16.46
2022-08-10T05:39:57.646Z,16.46
2022-08-10T05:42:21.773Z,16.52
2022-08-10T05:44:47.322Z,16.61
2022-08-10T05:47:12.881Z,16.56
2022-08-10T05:49:37.320Z,16.68
2022-08-10T05:52:01.031Z,16.90
2022-08-10T05:54:26.103Z,17.04
2022-08-10T05:56:55.753Z,17.49
2022-08-10T06:00:11.247Z,17.67
2022-08-10T06:02:31.588Z,17.97
2022-08-10T06:04:56.929Z,18.34
2022-08-10T06:07:22.108Z,18.90
2022-08-10T06:09:59.293Z,18.72
2022-08-10T06:12:29.897Z,19.60
2022-08-10T06:15:06.051Z,20.11
2022-08-10T06:17:35.590Z,20.86
2022-08-10T06:20:00.817Z,21.27
2022-08-10T06:22:27.337Z,21.76
2022-08-10T06:25:23.142Z,22.67
2022-08-10T06:27:37.564Z,22.90
2022-08-10T06:30:02.566Z,22.86
2022-08-10T06:32:28.824Z,22.79
2022-08-10T06:34:56.596Z,22.88
2022-08-10T06:37:25.013Z,23.54
2022-08-10T06:39:49.117Z,23.40
2022-08-10T06:42:19.516Z,24.58
2022-08-10T06:44:52.315Z,24.01
2022-08-10T06:47:22.941Z,24.56
2022-08-10T06:49:48.936Z,24.90
2022-08-10T06:52:18.527Z,25.12
2022-08-10T06:54:43.384Z,24.98
2022-08-10T06:57:17.623Z,24.18
2022-08-10T06:59:46.496Z,24.30
2022-08-10T07:02:17.503Z,24.56
2022-08-10T07:04:46.936Z,24.45
2022-08-10T07:07:18.480Z,24.02
2022-08-10T07:09:43.295Z,24.50
2022-08-10T07:12:10.636Z,24.17
2022-08-10T07:14:35.876Z,24.15
2022-08-10T07:17:01.124Z,24.20
2022-08-10T07:19:27.016Z,24.32
2022-08-10T07:21:52.297Z,23.89
2022-08-10T07:24:24.775Z,24.05
2022-08-10T07:26:52.032Z,23.52
2022-08-10T07:29:26.635Z,23.50
2022-08-10T07:32:01.930Z,23.40
2022-08-10T07:34:29.869Z,23.21
2022-08-10T07:36:55.168Z,23.51
2022-08-10T07:40:01.938Z,23.44
2022-08-10T07:42:06.311Z,23.05
2022-08-10T07:44:31.411Z,23.11
2022-08-10T07:46:57.520Z,23.30
2022-08-10T07:49:26.276Z,23.05
2022-08-10T07:51:54.596Z,23.08
2022-08-10T07:54:21.055Z,22.83
2022-08-10T07:56:50.206Z,22.87
2022-08-10T07:59:24.763Z,23.08
2022-08-10T08:01:54.053Z,22.98
2022-08-10T08:04:19.898Z,22.58
2022-08-10T08:06:46.180Z,22.48
2022-08-10T08:09:10.902Z,22.27
2022-08-10T08:11:36.699Z,22.57
2022-08-10T08:14:02.310Z,22.55
2022-08-10T08:16:28.100Z,22.53
2022-08-10T08:19:28.038Z,22.67
2022-08-10T08:24:08.955Z,22.67
2022-08-10T08:24:31.426Z,22.97
2022-08-10T08:26:58.438Z,22.80
2022-08-10T08:29:23.165Z,22.77
2022-08-10T08:31:59.141Z,22.89
2022-08-10T08:34:27.208Z,23.04
2022-08-10T08:36:54.949Z,23.06
2022-08-10T08:39:22.764Z,23.09
2022-08-10T08:42:17.591Z,22.88
2022-08-10T08:44:56.862Z,23.09
2022-08-10T08:48:06.821Z,23.06
2022-08-10T08:50:55.263Z,23.32
2022-08-10T08:54:02.596Z,23.22
2022-08-10T08:56:28.376Z,23.01
2022-08-10T08:59:07.480Z,23.29
2022-08-10T09:01:55.665Z,23.39
2022-08-10T09:04:42.212Z,23.58
2022-08-10T09:07:59.947Z,23.67
2022-08-10T09:10:35.330Z,23.47
2022-08-10T09:13:09.595Z,23.29
2022-08-10T09:15:42.270Z,23.53
2022-08-10T09:18:15.412Z,23.65
2022-08-10T09:20:49.419Z,23.52
2022-08-10T09:24:01.511Z,23.84
2022-08-10T09:26:18.016Z,23.67
2022-08-10T09:28:44.413Z,23.90
2022-08-10T09:31:26.231Z,23.79
2022-08-10T09:36:22.799Z,23.92
2022-08-10T09:37:03.267Z,23.89
2022-08-10T09:40:06.906Z,24.04
2022-08-10T09:42:42.292Z,24.17
2022-08-10T09:45:14.391Z,24.23
2022-08-10T09:48:01.904Z,24.15
2022-08-10T09:51:22.404Z,24.33
2022-08-10T09:53:40.388Z,24.67
2022-08-10T09:56:22.358Z,24.96
2022-08-10T09:59:26.816Z,25.14
2022-08-10T10:02:03.836Z,25.22
2022-08-10T10:04:40.604Z,25.41
2022-08-10T10:07:08.341Z,25.72
2022-08-10T10:09:39.716Z,26.25
2022-08-10T10:12:17.681Z,26.55
2022-08-10T10:15:24.976Z,26.57
2022-08-10T10:18:20.146Z,26.81
2022-08-10T10:20:57.407Z,26.81
2022-08-10T10:23:40.224Z,27.10
2022-08-10T10:26:23.828Z,27.73
2022-08-10T10:29:44.862Z,28.06
2022-08-10T10:31:56.179Z,28.54
2022-08-10T10:34:34.628Z,28.70
2022-08-10T10:37:01.656Z,28.46
2022-08-10T10:39:27.211Z,28.96
2022-08-10T10:42:04.556Z,28.80
2022-08-10T10:44:42.346Z,28.56
2022-08-10T10:47:26.490Z,29.11
2022-08-10T10:49:58.340Z,29.18
2022-08-10T10:52:40.186Z,29.49
2022-08-10T10:55:17.592Z,29.86
2022-08-10T10:57:58.858Z,29.85
2022-08-10T11:00:27.460Z,28.69
2022-08-10T11:03:08.238Z,28.93
2022-08-10T11:05:44.952Z,29.04
2022-08-10T11:08:15.445Z,29.36
2022-08-10T11:10:47.322Z,29.86
2022-08-10T11:14:25.726Z,29.56
2022-08-10T11:16:38.361Z,30.08
2022-08-10T11:19:17.185Z,30.21
2022-08-10T11:22:01.565Z,30.57
2022-08-10T11:24:44.377Z,30.06
2022-08-10T11:27:22.755Z,29.68
2022-08-10T11:30:00.656Z,28.67
2022-08-10T11:32:34.485Z,30.34
2022-08-10T11:35:14.251Z,29.79
2022-08-10T11:38:29.657Z,30.32
2022-08-10T11:40:37.217Z,30.65
2022-08-10T11:43:12.560Z,31.33
2022-08-10T11:45:51.471Z,31.62
2022-08-10T11:48:53.066Z,31.43
2022-08-10T11:51:22.612Z,30.51
2022-08-10T11:53:55.316Z,31.08
2022-08-10T11:56:29.510Z,31.91
2022-08-10T11:59:17.492Z,31.88
2022-08-10T12:01:45.782Z,32.52
2022-08-10T12:04:11.971Z,32.45
2022-08-10T12:06:54.686Z,31.90
2022-08-10T12:10:11.307Z,32.05
2022-08-10T12:12:06.936Z,31.87
2022-08-10T12:14:35.937Z,32.06
2022-08-10T12:17:11.517Z,30.21
2022-08-10T12:20:01.639Z,30.72
2022-08-10T12:22:34.935Z,30.97
2022-08-10T12:25:02.447Z,31.41
2022-08-10T12:27:40.397Z,31.75
2022-08-10T12:30:08.692Z,31.97
2022-08-10T12:32:46.844Z,32.58
2022-08-10T12:35:22.088Z,32.65
2022-08-10T12:38:06.018Z,32.70
2022-08-10T12:40:36.369Z,32.90
2022-08-10T12:44:04.346Z,32.27
2022-08-10T12:46:06.993Z,32.42
2022-08-10T12:48:39.305Z,32.19
2022-08-10T12:51:11.032Z,32.01
2022-08-10T12:53:49.280Z,33.01
2022-08-10T12:56:21.381Z,32.69
2022-08-10T12:58:57.771Z,33.54
2022-08-10T13:01:26.064Z,32.78
2022-08-10T13:04:21.505Z,33.02
2022-08-10T13:06:50.083Z,32.91
2022-08-10T13:09:14.452Z,32.45
2022-08-10T13:12:38.520Z,32.74
2022-08-10T13:14:33.092Z,33.31
2022-08-10T13:16:59.427Z,33.70
2022-08-10T13:19:25.390Z,33.78
2022-08-10T13:21:50.980Z,32.63
2022-08-10T13:24:17.686Z,32.46
2022-08-10T13:27:24.387Z,32.79
2022-08-10T13:29:39.069Z,33.56
2022-08-10T13:32:10.114Z,33.51
2022-08-10T13:34:44.889Z,33.68
2022-08-10T13:37:11.212Z,33.77
2022-08-10T13:39:57.820Z,32.51
2022-08-10T13:42:31.874Z,32.98
2022-08-10T13:44:58.923Z,32.72
2022-08-10T13:47:48.057Z,32.37
2022-08-10T13:50:21.509Z,33.14
2022-08-10T13:53:01.351Z,33.10
2022-08-10T13:55:46.079Z,33.84
2022-08-10T13:58:14.553Z,31.75
2022-08-10T14:00:41.082Z,31.54
2022-08-10T14:03:11.571Z,33.05
2022-08-10T14:05:44.143Z,33.50
2022-08-10T14:08:15.313Z,32.91
2022-08-10T14:11:02.275Z,32.97
2022-08-10T14:13:29.236Z,33.39
2022-08-10T14:15:53.845Z,33.15
2022-08-10T14:18:19.269Z,33.95
2022-08-10T14:20:45.577Z,31.24
2022-08-10T14:23:12.600Z,32.86
2022-08-10T14:25:49.512Z,33.85
2022-08-10T14:28:13.760Z,32.08
2022-08-10T14:30:41.365Z,32.95
2022-08-10T14:33:05.727Z,32.18
2022-08-10T14:36:19.562Z,32.95
2022-08-10T14:38:21.500Z,32.13
2022-08-10T14:40:52.043Z,32.04
2022-08-10T14:43:28.529Z,33.08
2022-08-10T14:46:01.611Z,32.12
2022-08-10T14:48:32.031Z,31.64
2022-08-10T14:50:58.366Z,32.33
2022-08-10T14:53:28.779Z,32.21
2022-08-10T14:55:57.747Z,32.12
2022-08-10T14:58:26.422Z,31.09
2022-08-10T15:00:51.092Z,31.02
2022-08-10T15:03:59.042Z,30.55
2022-08-10T15:06:03.867Z,30.93
2022-08-10T15:08:36.937Z,31.22
2022-08-10T15:11:03.311Z,30.25
2022-08-10T15:13:34.456Z,29.78
2022-08-10T15:16:12.594Z,29.86
2022-08-10T15:18:42.116Z,30.06
2022-08-10T15:21:28.405Z,30.59
2022-08-10T15:24:05.248Z,30.76
2022-08-10T15:26:30.964Z,30.79
2022-08-10T15:29:23.426Z,30.32
2022-08-10T15:31:59.701Z,29.98
2022-08-10T15:34:42.297Z,30.19
2022-08-10T15:37:36.364Z,29.78
2022-08-10T15:40:24.888Z,30.01
2022-08-10T15:43:01.235Z,29.72
2022-08-10T15:45:25.196Z,29.24
2022-08-10T15:48:02.930Z,29.15
2022-08-10T15:50:32.091Z,29.04
2022-08-10T15:53:02.902Z,29.12
2022-08-10T15:55:42.550Z,29.33
2022-08-10T15:58:12.413Z,29.33
2022-08-10T16:00:47.581Z,29.34
2022-08-10T16:03:24.605Z,29.03
2022-08-10T16:06:01.090Z,29.09
2022-08-10T16:08:30.602Z,29.06
2022-08-10T16:11:00.675Z,28.98
2022-08-10T16:13:50.995Z,29.06
2022-08-10T16:16:19.357Z,28.53
2022-08-10T16:18:47.312Z,28.75
2022-08-10T16:21:17.964Z,28.66
2022-08-10T16:23:45.651Z,28.67
2022-08-10T16:26:34.792Z,28.69
2022-08-10T16:29:04.653Z,28.76
2022-08-10T16:31:32.400Z,28.73
2022-08-10T16:34:00.900Z,28.62
2022-08-10T16:36:38.424Z,28.44
2022-08-10T16:39:03.496Z,28.36
2022-08-10T16:42:03.385Z,28.01
2022-08-10T16:44:18.375Z,28.08
2022-08-10T16:46:45.711Z,28.01
2022-08-10T16:49:11.292Z,27.95
2022-08-10T16:51:36.028Z,27.78
2022-08-10T16:54:02.833Z,27.71
2022-08-10T16:56:49.020Z,27.68
2022-08-10T16:59:17.864Z,27.48
2022-08-10T17:01:51.479Z,27.43
2022-08-10T17:04:19.601Z,27.59
2022-08-10T17:06:56.132Z,27.58
2022-08-10T17:09:26.303Z,27.63
2022-08-10T17:11:55.855Z,27.57
2022-08-10T17:14:25.828Z,27.44
2022-08-10T17:16:55.929Z,27.47
2022-08-10T17:19:24.759Z,27.41
2022-08-10T17:21:52.925Z,27.36
2022-08-10T17:24:18.470Z,27.37
2022-08-10T17:26:44.887Z,27.26
2022-08-10T17:29:59.050Z,27.24
2022-08-10T17:32:10.080Z,27.10
2022-08-10T17:34:40.383Z,27.10
2022-08-10T17:37:07.401Z,26.98
2022-08-10T17:39:36.770Z,26.95
2022-08-10T17:42:06.621Z,26.89
2022-08-10T17:44:38.046Z,26.78
2022-08-10T17:47:11.042Z,26.32
2022-08-10T17:49:37.620Z,26.56
2022-08-10T17:52:04.603Z,26.51
2022-08-10T17:54:32.910Z,26.45
2022-08-10T17:57:00.648Z,26.38
2022-08-10T17:59:26.212Z,26.31
2022-08-10T18:01:58.565Z,26.23
2022-08-10T18:04:26.708Z,26.10
2022-08-10T18:06:54.925Z,26.02
2022-08-10T18:09:32.171Z,25.93
2022-08-10T18:12:03.533Z,25.85
2022-08-10T18:14:35.929Z,25.77
2022-08-10T18:17:09.870Z,25.67
2022-08-10T18:19:34.840Z,25.58
2022-08-10T18:21:59.614Z,25.47
2022-08-10T18:24:23.491Z,25.38
2022-08-10T18:26:51.471Z,25.25
2022-08-10T18:29:22.323Z,25.12
2022-08-10T18:31:48.280Z,25.03
2022-08-10T18:34:18.817Z,24.93
2022-08-10T18:36:44.576Z,24.81
2022-08-10T18:39:12.456Z,24.67
2022-08-10T18:42:04.671Z,24.53
2022-08-10T18:44:33.717Z,24.41
2022-08-10T18:47:02.150Z,24.34
2022-08-10T18:49:35.215Z,24.20
2022-08-10T18:52:03.227Z,24.11
2022-08-10T18:54:44.348Z,23.99
2022-08-10T18:57:22.644Z,23.88
2022-08-10T19:00:11.332Z,23.73
2022-08-10T19:02:55.500Z,23.59
2022-08-10T19:05:48.162Z,23.46
2022-08-10T19:08:57.792Z,23.31
2022-08-10T19:11:48.047Z,23.18
2022-08-10T19:14:19.516Z,23.10
2022-08-10T19:16:55.930Z,23.00
2022-08-10T19:19:36.164Z,22.89
2022-08-10T19:22:08.479Z,22.80
2022-08-10T19:24:46.840Z,22.72
2022-08-10T19:27:20.911Z,22.63
2022-08-10T19:30:11.166Z,22.50
2022-08-10T19:33:04.087Z,22.41
2022-08-10T19:36:04.635Z,22.34
2022-08-10T19:38:38.315Z,22.24
2022-08-10T19:41:31.942Z,22.13
2022-08-10T19:44:05.297Z,22.05
2022-08-10T19:46:41.102Z,22.00
2022-08-10T19:49:19.094Z,21.92
2022-08-10T19:51:53.559Z,22.03
2022-08-10T19:54:27.868Z,21.84
2022-08-10T19:57:10.825Z,21.92
2022-08-10T20:00:15.003Z,22.04
2022-08-10T20:02:45.807Z,22.05
2022-08-10T20:05:22.212Z,21.96
2022-08-10T20:07:54.486Z,21.97
2022-08-10T20:10:26.874Z,21.99
2022-08-10T20:13:01.979Z,22.02
2022-08-10T20:15:42.420Z,22.04
2022-08-10T20:18:13.081Z,21.95
2022-08-10T20:20:42.354Z,21.83
2022-08-10T20:23:18.861Z,21.84
2022-08-10T20:25:50.007Z,21.87
2022-08-10T20:28:21.758Z,21.87
2022-08-10T20:30:53.439Z,21.83
2022-08-10T20:33:26.987Z,21.82
2022-08-10T20:35:57.629Z,21.90
2022-08-10T20:38:27.459Z,21.82
2022-08-10T20:41:07.985Z,21.89
2022-08-10T20:43:43.139Z,21.80
2022-08-10T20:46:18.163Z,21.72
2022-08-10T20:48:51.604Z,21.75
2022-08-10T20:51:21.166Z,21.68
2022-08-10T20:53:51.915Z,21.65
2022-08-10T20:56:33.554Z,21.65
2022-08-10T21:00:02.586Z,21.62
2022-08-10T21:02:48.750Z,21.63
2022-08-10T21:05:22.600Z,21.65
2022-08-10T21:08:03.267Z,21.52
2022-08-10T21:10:50.173Z,21.44
2022-08-10T21:13:45.526Z,21.20
2022-08-10T21:16:30.174Z,21.43
2022-08-10T21:19:26.904Z,21.47
2022-08-10T21:22:15.726Z,21.23
2022-08-10T21:24:52.359Z,21.32
2022-08-10T21:27:35.108Z,21.38
2022-08-10T21:30:09.170Z,21.15
2022-08-10T21:32:44.885Z,21.28
2022-08-10T21:35:37.846Z,21.16
2022-08-10T21:38:08.461Z,21.14
2022-08-10T21:44:41.356Z,21.03
2022-08-10T21:47:41.805Z,20.97
2022-08-10T21:50:45.717Z,20.86
2022-08-10T21:53:45.025Z,20.88
2022-08-10T21:56:34.896Z,20.83
2022-08-10T21:59:22.531Z,20.57
2022-08-10T22:02:08.378Z,20.67
2022-08-10T22:04:52.975Z,20.49
2022-08-10T22:07:38.283Z,20.43
2022-08-10T22:10:25.814Z,20.58
2022-08-10T22:13:08.373Z,20.51
2022-08-10T22:16:09.896Z,20.42
2022-08-10T22:19:02.910Z,20.41
2022-08-10T22:22:04.673Z,20.34
2022-08-10T22:24:59.824Z,20.29
2022-08-10T22:27:51.017Z,20.20
2022-08-10T22:30:36.010Z,20.17
2022-08-10T22:31:25.113Z,21.04
2022-08-10T22:33:44.784Z,20.13
2022-08-10T22:37:19.517Z,19.97
2022-08-10T22:40:19.244Z,19.86
2022-08-10T22:43:09.987Z,19.90
2022-08-10T22:45:54.559Z,19.86
2022-08-10T22:48:35.931Z,19.80
2022-08-10T22:51:12.384Z,19.66
2022-08-10T22:54:00.884Z,19.65
2022-08-10T22:56:42.859Z,19.57
2022-08-10T22:59:07.879Z,19.50
2022-08-10T23:01:42.197Z,19.46
2022-08-10T23:04:35.618Z,19.38
2022-08-10T23:07:08.044Z,19.36
2022-08-10T23:09:35.899Z,19.25
2022-08-10T23:12:04.507Z,19.19
2022-08-10T23:14:35.027Z,19.22
2022-08-10T23:17:16.258Z,19.15
2022-08-10T23:19:46.305Z,19.10
2022-08-10T23:22:13.538Z,19.04
2022-08-10T23:24:46.465Z,19.00
2022-08-10T23:27:37.746Z,18.95
2022-08-10T23:30:09.984Z,18.79
2022-08-10T23:32:36.880Z,18.81
2022-08-10T23:36:27.231Z,18.75
2022-08-10T23:37:55.512Z,18.64
2022-08-10T23:40:23.303Z,18.62
2022-08-10T23:42:50.843Z,18.55
2022-08-10T23:45:25.236Z,18.53
2022-08-10T23:47:53.989Z,18.49
2022-08-10T23:50:20.527Z,18.43
2022-08-10T23:52:52.879Z,18.37
2022-08-10T23:55:27.416Z,18.31
2022-08-10T23:57:56.463Z,18.25
